sensor_id;sensor_type;location;lat;lon;timestamp;P1;durP1;ratioP1;P2;durP2;ratioP2
48925;SDS011;39838;59.938;30.642;2023-01-29T00:01:22;5.85;;;3.92;;
48925;SDS011;39838;59.938;30.642;2023-01-29T00:03:49;6.22;;;3.97;;
48925;SDS011;39838;59.938;30.642;2023-01-29T00:06:16;5.50;;;3.65;;
48925;SDS011;39838;59.938;30.642;2023-01-29T00:08:44;6.25;;;4.15;;
48925;SDS011;39838;59.938;30.642;2023-01-29T00:11:12;7.05;;;4.40;;
48925;SDS011;39838;59.938;30.642;2023-01-29T00:13:40;7.68;;;4.40;;
48925;SDS011;39838;59.938;30.642;2023-01-29T00:16:08;9.13;;;3.80;;
48925;SDS011;39838;59.938;30.642;2023-01-29T00:18:37;8.05;;;4.35;;
48925;SDS011;39838;59.938;30.642;2023-01-29T00:21:07;7.03;;;3.97;;
48925;SDS011;39838;59.938;30.642;2023-01-29T00:23:35;6.40;;;4.22;;
48925;SDS011;39838;59.938;30.642;2023-01-29T00:26:02;6.80;;;4.20;;
48925;SDS011;39838;59.938;30.642;2023-01-29T00:28:30;7.30;;;4.00;;
48925;SDS011;39838;59.938;30.642;2023-01-29T00:30:58;5.88;;;4.22;;
48925;SDS011;39838;59.938;30.642;2023-01-29T00:33:31;6.97;;;4.72;;
48925;SDS011;39838;59.938;30.642;2023-01-29T00:36:00;6.93;;;4.30;;
48925;SDS011;39838;59.938;30.642;2023-01-29T00:38:28;6.45;;;4.22;;
48925;SDS011;39838;59.938;30.642;2023-01-29T00:40:55;6.95;;;4.15;;
48925;SDS011;39838;59.938;30.642;2023-01-29T00:43:41;6.10;;;4.00;;
48925;SDS011;39838;59.938;30.642;2023-01-29T00:46:40;7.60;;;4.50;;
48925;SDS011;39838;59.938;30.642;2023-01-29T00:49:08;8.85;;;4.85;;
48925;SDS011;39838;59.938;30.642;2023-01-29T00:51:36;6.55;;;4.20;;
48925;SDS011;39838;59.938;30.642;2023-01-29T00:54:04;5.45;;;3.85;;
48925;SDS011;39838;59.938;30.642;2023-01-29T00:56:32;6.03;;;4.63;;
48925;SDS011;39838;59.938;30.642;2023-01-29T00:59:02;6.88;;;4.30;;
48925;SDS011;39838;59.938;30.642;2023-01-29T01:01:29;7.93;;;4.60;;
48925;SDS011;39838;59.938;30.642;2023-01-29T01:04:14;6.60;;;4.00;;
48925;SDS011;39838;59.938;30.642;2023-01-29T01:06:41;6.75;;;4.32;;
48925;SDS011;39838;59.938;30.642;2023-01-29T01:09:08;7.22;;;4.38;;
48925;SDS011;39838;59.938;30.642;2023-01-29T01:11:53;6.20;;;4.10;;
48925;SDS011;39838;59.938;30.642;2023-01-29T01:14:22;6.15;;;4.05;;
48925;SDS011;39838;59.938;30.642;2023-01-29T01:16:49;6.45;;;3.90;;
48925;SDS011;39838;59.938;30.642;2023-01-29T01:19:16;6.05;;;3.90;;
48925;SDS011;39838;59.938;30.642;2023-01-29T01:21:43;6.38;;;4.03;;
48925;SDS011;39838;59.938;30.642;2023-01-29T01:24:12;6.35;;;4.35;;
48925;SDS011;39838;59.938;30.642;2023-01-29T01:26:39;7.45;;;4.25;;
48925;SDS011;39838;59.938;30.642;2023-01-29T01:29:07;6.28;;;3.95;;
48925;SDS011;39838;59.938;30.642;2023-01-29T01:31:35;7.93;;;4.28;;
48925;SDS011;39838;59.938;30.642;2023-01-29T01:34:03;5.60;;;4.07;;
48925;SDS011;39838;59.938;30.642;2023-01-29T01:36:30;7.03;;;4.13;;
48925;SDS011;39838;59.938;30.642;2023-01-29T01:38:57;7.80;;;4.53;;
48925;SDS011;39838;59.938;30.642;2023-01-29T01:41:24;6.78;;;4.28;;
48925;SDS011;39838;59.938;30.642;2023-01-29T01:43:52;6.43;;;4.05;;
48925;SDS011;39838;59.938;30.642;2023-01-29T01:46:21;6.25;;;4.25;;
48925;SDS011;39838;59.938;30.642;2023-01-29T01:48:51;5.97;;;4.20;;
48925;SDS011;39838;59.938;30.642;2023-01-29T01:51:23;5.35;;;3.80;;
48925;SDS011;39838;59.938;30.642;2023-01-29T01:53:55;6.05;;;4.07;;
48925;SDS011;39838;59.938;30.642;2023-01-29T01:56:29;5.97;;;4.20;;
48925;SDS011;39838;59.938;30.642;2023-01-29T02:01:31;6.78;;;4.30;;
48925;SDS011;39838;59.938;30.642;2023-01-29T02:04:00;8.52;;;4.40;;
48925;SDS011;39838;59.938;30.642;2023-01-29T02:06:47;5.80;;;4.32;;
48925;SDS011;39838;59.938;30.642;2023-01-29T02:09:35;7.50;;;4.13;;
48925;SDS011;39838;59.938;30.642;2023-01-29T02:12:07;7.28;;;4.00;;
48925;SDS011;39838;59.938;30.642;2023-01-29T02:14:37;6.53;;;4.43;;
48925;SDS011;39838;59.938;30.642;2023-01-29T02:17:25;6.10;;;4.20;;
48925;SDS011;39838;59.938;30.642;2023-01-29T02:19:56;7.65;;;4.50;;
48925;SDS011;39838;59.938;30.642;2023-01-29T02:22:38;7.35;;;4.45;;
48925;SDS011;39838;59.938;30.642;2023-01-29T02:25:28;7.90;;;4.90;;
48925;SDS011;39838;59.938;30.642;2023-01-29T02:28:15;7.95;;;4.57;;
48925;SDS011;39838;59.938;30.642;2023-01-29T02:30:52;6.60;;;4.63;;
48925;SDS011;39838;59.938;30.642;2023-01-29T02:33:30;8.93;;;4.63;;
48925;SDS011;39838;59.938;30.642;2023-01-29T02:36:08;9.35;;;4.80;;
48925;SDS011;39838;59.938;30.642;2023-01-29T02:38:44;9.55;;;4.60;;
48925;SDS011;39838;59.938;30.642;2023-01-29T02:41:20;8.15;;;4.65;;
48925;SDS011;39838;59.938;30.642;2023-01-29T02:43:54;7.55;;;4.60;;
48925;SDS011;39838;59.938;30.642;2023-01-29T02:46:28;8.73;;;4.63;;
48925;SDS011;39838;59.938;30.642;2023-01-29T02:48:58;7.95;;;5.18;;
48925;SDS011;39838;59.938;30.642;2023-01-29T02:51:34;8.23;;;4.75;;
48925;SDS011;39838;59.938;30.642;2023-01-29T02:54:06;8.52;;;4.72;;
48925;SDS011;39838;59.938;30.642;2023-01-29T02:59:14;8.63;;;4.47;;
48925;SDS011;39838;59.938;30.642;2023-01-29T03:01:47;6.65;;;4.40;;
48925;SDS011;39838;59.938;30.642;2023-01-29T03:04:18;6.10;;;4.38;;
48925;SDS011;39838;59.938;30.642;2023-01-29T03:06:50;7.53;;;4.80;;
48925;SDS011;39838;59.938;30.642;2023-01-29T03:09:23;7.53;;;4.53;;
48925;SDS011;39838;59.938;30.642;2023-01-29T03:11:57;6.68;;;4.75;;
48925;SDS011;39838;59.938;30.642;2023-01-29T03:14:44;7.18;;;4.85;;
48925;SDS011;39838;59.938;30.642;2023-01-29T03:17:32;10.93;;;4.88;;
48925;SDS011;39838;59.938;30.642;2023-01-29T03:20:03;6.75;;;4.43;;
48925;SDS011;39838;59.938;30.642;2023-01-29T03:22:49;6.68;;;4.50;;
48925;SDS011;39838;59.938;30.642;2023-01-29T03:25:21;11.70;;;4.80;;
48925;SDS011;39838;59.938;30.642;2023-01-29T03:28:10;7.10;;;4.70;;
48925;SDS011;39838;59.938;30.642;2023-01-29T03:31:00;8.88;;;5.03;;
48925;SDS011;39838;59.938;30.642;2023-01-29T03:33:48;7.22;;;4.78;;
48925;SDS011;39838;59.938;30.642;2023-01-29T03:36:18;8.52;;;5.10;;
48925;SDS011;39838;59.938;30.642;2023-01-29T03:38:49;7.72;;;4.68;;
48925;SDS011;39838;59.938;30.642;2023-01-29T03:41:19;8.93;;;5.07;;
48925;SDS011;39838;59.938;30.642;2023-01-29T03:43:51;7.45;;;4.85;;
48925;SDS011;39838;59.938;30.642;2023-01-29T03:46:28;7.55;;;4.72;;
48925;SDS011;39838;59.938;30.642;2023-01-29T03:49:01;12.48;;;5.05;;
48925;SDS011;39838;59.938;30.642;2023-01-29T03:51:37;11.40;;;5.20;;
48925;SDS011;39838;59.938;30.642;2023-01-29T03:54:12;9.25;;;5.75;;
48925;SDS011;39838;59.938;30.642;2023-01-29T03:59:32;11.32;;;5.80;;
48925;SDS011;39838;59.938;30.642;2023-01-29T04:02:07;9.18;;;5.80;;
48925;SDS011;39838;59.938;30.642;2023-01-29T04:04:39;10.00;;;6.15;;
48925;SDS011;39838;59.938;30.642;2023-01-29T04:07:11;7.25;;;5.20;;
48925;SDS011;39838;59.938;30.642;2023-01-29T04:09:44;9.07;;;5.38;;
48925;SDS011;39838;59.938;30.642;2023-01-29T04:12:14;9.70;;;5.88;;
48925;SDS011;39838;59.938;30.642;2023-01-29T04:14:45;11.20;;;5.70;;
48925;SDS011;39838;59.938;30.642;2023-01-29T04:17:16;9.18;;;5.80;;
48925;SDS011;39838;59.938;30.642;2023-01-29T04:19:48;10.07;;;5.95;;
48925;SDS011;39838;59.938;30.642;2023-01-29T04:22:17;9.20;;;5.63;;
48925;SDS011;39838;59.938;30.642;2023-01-29T04:24:46;9.60;;;5.78;;
48925;SDS011;39838;59.938;30.642;2023-01-29T04:27:20;9.90;;;5.78;;
48925;SDS011;39838;59.938;30.642;2023-01-29T04:30:03;9.88;;;5.63;;
48925;SDS011;39838;59.938;30.642;2023-01-29T04:32:44;9.95;;;5.70;;
48925;SDS011;39838;59.938;30.642;2023-01-29T04:35:25;11.70;;;5.85;;
48925;SDS011;39838;59.938;30.642;2023-01-29T04:38:00;9.48;;;5.97;;
48925;SDS011;39838;59.938;30.642;2023-01-29T04:40:39;12.75;;;5.90;;
48925;SDS011;39838;59.938;30.642;2023-01-29T04:43:14;11.45;;;6.32;;
48925;SDS011;39838;59.938;30.642;2023-01-29T04:45:49;10.00;;;6.22;;
48925;SDS011;39838;59.938;30.642;2023-01-29T04:48:27;9.68;;;6.20;;
48925;SDS011;39838;59.938;30.642;2023-01-29T04:51:02;9.88;;;5.72;;
48925;SDS011;39838;59.938;30.642;2023-01-29T04:53:37;12.88;;;6.38;;
48925;SDS011;39838;59.938;30.642;2023-01-29T04:58:45;8.85;;;5.70;;
48925;SDS011;39838;59.938;30.642;2023-01-29T05:01:15;9.93;;;5.60;;
48925;SDS011;39838;59.938;30.642;2023-01-29T05:03:46;11.50;;;6.00;;
48925;SDS011;39838;59.938;30.642;2023-01-29T05:06:19;8.45;;;5.80;;
48925;SDS011;39838;59.938;30.642;2023-01-29T05:08:49;9.45;;;6.03;;
48925;SDS011;39838;59.938;30.642;2023-01-29T05:11:17;11.70;;;6.47;;
48925;SDS011;39838;59.938;30.642;2023-01-29T05:13:45;10.55;;;6.13;;
48925;SDS011;39838;59.938;30.642;2023-01-29T05:16:15;13.43;;;6.60;;
48925;SDS011;39838;59.938;30.642;2023-01-29T05:18:48;12.48;;;6.32;;
48925;SDS011;39838;59.938;30.642;2023-01-29T05:21:15;12.05;;;6.50;;
48925;SDS011;39838;59.938;30.642;2023-01-29T05:23:43;15.73;;;6.80;;
48925;SDS011;39838;59.938;30.642;2023-01-29T05:26:17;16.58;;;6.55;;
48925;SDS011;39838;59.938;30.642;2023-01-29T05:29:02;13.85;;;6.55;;
48925;SDS011;39838;59.938;30.642;2023-01-29T05:31:30;13.50;;;6.43;;
48925;SDS011;39838;59.938;30.642;2023-01-29T05:33:58;14.93;;;7.82;;
48925;SDS011;39838;59.938;30.642;2023-01-29T05:36:25;12.90;;;8.07;;
48925;SDS011;39838;59.938;30.642;2023-01-29T05:38:52;12.98;;;7.20;;
48925;SDS011;39838;59.938;30.642;2023-01-29T05:41:19;15.30;;;7.20;;
48925;SDS011;39838;59.938;30.642;2023-01-29T05:43:46;16.95;;;7.53;;
48925;SDS011;39838;59.938;30.642;2023-01-29T05:46:13;14.90;;;7.43;;
48925;SDS011;39838;59.938;30.642;2023-01-29T05:48:41;12.02;;;7.20;;
48925;SDS011;39838;59.938;30.642;2023-01-29T05:51:09;12.77;;;7.55;;
48925;SDS011;39838;59.938;30.642;2023-01-29T05:53:36;12.70;;;7.28;;
48925;SDS011;39838;59.938;30.642;2023-01-29T05:56:04;14.70;;;8.18;;
48925;SDS011;39838;59.938;30.642;2023-01-29T05:58:31;12.70;;;7.18;;
48925;SDS011;39838;59.938;30.642;2023-01-29T06:01:06;10.70;;;6.78;;
48925;SDS011;39838;59.938;30.642;2023-01-29T06:03:34;13.05;;;8.15;;
48925;SDS011;39838;59.938;30.642;2023-01-29T06:06:02;13.13;;;7.60;;
48925;SDS011;39838;59.938;30.642;2023-01-29T06:08:30;15.57;;;7.45;;
48925;SDS011;39838;59.938;30.642;2023-01-29T06:10:57;13.85;;;7.60;;
48925;SDS011;39838;59.938;30.642;2023-01-29T06:13:25;12.27;;;7.43;;
48925;SDS011;39838;59.938;30.642;2023-01-29T06:15:52;15.57;;;7.32;;
48925;SDS011;39838;59.938;30.642;2023-01-29T06:18:19;12.50;;;7.85;;
48925;SDS011;39838;59.938;30.642;2023-01-29T06:20:46;15.05;;;7.90;;
48925;SDS011;39838;59.938;30.642;2023-01-29T06:23:13;13.80;;;7.53;;
48925;SDS011;39838;59.938;30.642;2023-01-29T06:25:41;14.73;;;7.30;;
48925;SDS011;39838;59.938;30.642;2023-01-29T06:28:09;13.43;;;7.28;;
48925;SDS011;39838;59.938;30.642;2023-01-29T06:30:36;13.95;;;6.95;;
48925;SDS011;39838;59.938;30.642;2023-01-29T06:33:03;14.43;;;7.20;;
48925;SDS011;39838;59.938;30.642;2023-01-29T06:35:30;12.93;;;6.80;;
48925;SDS011;39838;59.938;30.642;2023-01-29T06:37:57;12.02;;;6.18;;
48925;SDS011;39838;59.938;30.642;2023-01-29T06:40:24;13.88;;;6.78;;
48925;SDS011;39838;59.938;30.642;2023-01-29T06:42:53;9.85;;;5.78;;
48925;SDS011;39838;59.938;30.642;2023-01-29T06:45:20;10.52;;;6.55;;
48925;SDS011;39838;59.938;30.642;2023-01-29T06:47:47;11.10;;;6.38;;
48925;SDS011;39838;59.938;30.642;2023-01-29T06:50:14;11.13;;;6.28;;
48925;SDS011;39838;59.938;30.642;2023-01-29T06:52:41;11.52;;;6.20;;
48925;SDS011;39838;59.938;30.642;2023-01-29T06:55:08;10.93;;;6.35;;
48925;SDS011;39838;59.938;30.642;2023-01-29T06:57:35;12.90;;;6.13;;
48925;SDS011;39838;59.938;30.642;2023-01-29T07:00:04;12.68;;;7.10;;
48925;SDS011;39838;59.938;30.642;2023-01-29T07:02:32;13.30;;;5.93;;
48925;SDS011;39838;59.938;30.642;2023-01-29T07:04:59;10.95;;;6.32;;
48925;SDS011;39838;59.938;30.642;2023-01-29T07:07:27;11.25;;;6.10;;
48925;SDS011;39838;59.938;30.642;2023-01-29T07:09:54;15.50;;;6.93;;
48925;SDS011;39838;59.938;30.642;2023-01-29T07:12:21;14.10;;;6.00;;
48925;SDS011;39838;59.938;30.642;2023-01-29T07:14:48;13.98;;;5.78;;
48925;SDS011;39838;59.938;30.642;2023-01-29T07:17:16;11.20;;;5.43;;
48925;SDS011;39838;59.938;30.642;2023-01-29T07:19:44;11.88;;;5.35;;
48925;SDS011;39838;59.938;30.642;2023-01-29T07:22:11;10.07;;;5.00;;
48925;SDS011;39838;59.938;30.642;2023-01-29T07:24:39;11.63;;;5.47;;
48925;SDS011;39838;59.938;30.642;2023-01-29T07:27:06;11.10;;;5.38;;
48925;SDS011;39838;59.938;30.642;2023-01-29T07:29:33;8.68;;;4.88;;
48925;SDS011;39838;59.938;30.642;2023-01-29T07:32:00;9.40;;;4.60;;
48925;SDS011;39838;59.938;30.642;2023-01-29T07:34:29;12.00;;;5.53;;
48925;SDS011;39838;59.938;30.642;2023-01-29T07:36:56;8.90;;;4.72;;
48925;SDS011;39838;59.938;30.642;2023-01-29T07:39:23;10.52;;;3.92;;
48925;SDS011;39838;59.938;30.642;2023-01-29T07:41:50;7.68;;;4.20;;
48925;SDS011;39838;59.938;30.642;2023-01-29T07:44:17;9.68;;;3.92;;
48925;SDS011;39838;59.938;30.642;2023-01-29T07:46:44;8.15;;;3.83;;
48925;SDS011;39838;59.938;30.642;2023-01-29T07:49:12;8.05;;;3.78;;
48925;SDS011;39838;59.938;30.642;2023-01-29T07:51:40;5.50;;;3.50;;
48925;SDS011;39838;59.938;30.642;2023-01-29T07:54:07;7.70;;;3.70;;
48925;SDS011;39838;59.938;30.642;2023-01-29T07:56:34;9.77;;;3.63;;
48925;SDS011;39838;59.938;30.642;2023-01-29T07:59:02;10.63;;;3.67;;
48925;SDS011;39838;59.938;30.642;2023-01-29T08:01:29;7.45;;;3.83;;
48925;SDS011;39838;59.938;30.642;2023-01-29T08:03:56;7.15;;;3.30;;
48925;SDS011;39838;59.938;30.642;2023-01-29T08:06:23;6.20;;;3.95;;
48925;SDS011;39838;59.938;30.642;2023-01-29T08:08:54;8.73;;;3.45;;
48925;SDS011;39838;59.938;30.642;2023-01-29T08:11:21;7.55;;;3.35;;
48925;SDS011;39838;59.938;30.642;2023-01-29T08:13:49;8.43;;;3.75;;
48925;SDS011;39838;59.938;30.642;2023-01-29T08:16:16;7.25;;;3.63;;
48925;SDS011;39838;59.938;30.642;2023-01-29T08:18:43;7.88;;;3.55;;
48925;SDS011;39838;59.938;30.642;2023-01-29T08:21:12;6.55;;;3.63;;
48925;SDS011;39838;59.938;30.642;2023-01-29T08:23:39;8.40;;;3.55;;
48925;SDS011;39838;59.938;30.642;2023-01-29T08:26:08;10.77;;;3.75;;
48925;SDS011;39838;59.938;30.642;2023-01-29T08:28:35;6.03;;;3.45;;
48925;SDS011;39838;59.938;30.642;2023-01-29T08:31:11;10.82;;;4.35;;
48925;SDS011;39838;59.938;30.642;2023-01-29T08:36:06;5.15;;;3.00;;
48925;SDS011;39838;59.938;30.642;2023-01-29T08:38:34;5.93;;;3.33;;
48925;SDS011;39838;59.938;30.642;2023-01-29T08:41:01;5.40;;;3.13;;
48925;SDS011;39838;59.938;30.642;2023-01-29T08:43:30;9.68;;;3.90;;
48925;SDS011;39838;59.938;30.642;2023-01-29T08:45:57;4.03;;;3.05;;
48925;SDS011;39838;59.938;30.642;2023-01-29T08:48:24;6.88;;;3.38;;
48925;SDS011;39838;59.938;30.642;2023-01-29T08:50:51;9.02;;;3.53;;
48925;SDS011;39838;59.938;30.642;2023-01-29T08:53:22;8.38;;;3.42;;
48925;SDS011;39838;59.938;30.642;2023-01-29T08:55:50;8.13;;;3.50;;
48925;SDS011;39838;59.938;30.642;2023-01-29T08:58:18;5.50;;;3.40;;
48925;SDS011;39838;59.938;30.642;2023-01-29T09:00:46;11.25;;;4.30;;
48925;SDS011;39838;59.938;30.642;2023-01-29T09:03:14;9.73;;;4.07;;
48925;SDS011;39838;59.938;30.642;2023-01-29T09:05:41;8.90;;;3.70;;
48925;SDS011;39838;59.938;30.642;2023-01-29T09:08:08;7.45;;;3.88;;
48925;SDS011;39838;59.938;30.642;2023-01-29T09:10:35;8.45;;;3.88;;
48925;SDS011;39838;59.938;30.642;2023-01-29T09:13:02;8.65;;;3.65;;
48925;SDS011;39838;59.938;30.642;2023-01-29T09:15:30;5.38;;;3.40;;
48925;SDS011;39838;59.938;30.642;2023-01-29T09:17:58;8.88;;;3.30;;
48925;SDS011;39838;59.938;30.642;2023-01-29T09:20:33;6.18;;;3.17;;
48925;SDS011;39838;59.938;30.642;2023-01-29T09:23:03;7.07;;;3.33;;
48925;SDS011;39838;59.938;30.642;2023-01-29T09:25:31;5.40;;;3.40;;
48925;SDS011;39838;59.938;30.642;2023-01-29T09:27:58;7.18;;;3.50;;
48925;SDS011;39838;59.938;30.642;2023-01-29T09:30:28;7.50;;;3.60;;
48925;SDS011;39838;59.938;30.642;2023-01-29T09:33:00;7.60;;;3.55;;
48925;SDS011;39838;59.938;30.642;2023-01-29T09:35:27;7.07;;;3.83;;
48925;SDS011;39838;59.938;30.642;2023-01-29T09:37:54;9.73;;;3.47;;
48925;SDS011;39838;59.938;30.642;2023-01-29T09:40:23;5.43;;;3.15;;
48925;SDS011;39838;59.938;30.642;2023-01-29T09:42:53;5.90;;;3.00;;
48925;SDS011;39838;59.938;30.642;2023-01-29T09:45:23;6.35;;;3.22;;
48925;SDS011;39838;59.938;30.642;2023-01-29T09:47:55;5.78;;;3.15;;
48925;SDS011;39838;59.938;30.642;2023-01-29T09:50:25;7.05;;;3.40;;
48925;SDS011;39838;59.938;30.642;2023-01-29T09:52:55;4.55;;;3.10;;
48925;SDS011;39838;59.938;30.642;2023-01-29T09:55:28;7.47;;;3.20;;
48925;SDS011;39838;59.938;30.642;2023-01-29T09:58:02;6.90;;;3.20;;
48925;SDS011;39838;59.938;30.642;2023-01-29T10:00:38;6.95;;;3.70;;
48925;SDS011;39838;59.938;30.642;2023-01-29T10:03:18;5.28;;;2.78;;
48925;SDS011;39838;59.938;30.642;2023-01-29T10:06:20;5.60;;;3.05;;
48925;SDS011;39838;59.938;30.642;2023-01-29T10:12:00;6.88;;;3.40;;
48925;SDS011;39838;59.938;30.642;2023-01-29T10:14:38;6.78;;;3.20;;
48925;SDS011;39838;59.938;30.642;2023-01-29T10:17:19;5.57;;;3.20;;
48925;SDS011;39838;59.938;30.642;2023-01-29T10:20:03;8.15;;;3.63;;
48925;SDS011;39838;59.938;30.642;2023-01-29T10:22:53;5.18;;;2.65;;
48925;SDS011;39838;59.938;30.642;2023-01-29T10:25:29;6.57;;;3.00;;
48925;SDS011;39838;59.938;30.642;2023-01-29T10:28:02;4.20;;;2.67;;
48925;SDS011;39838;59.938;30.642;2023-01-29T10:30:37;5.72;;;2.90;;
48925;SDS011;39838;59.938;30.642;2023-01-29T10:33:09;5.10;;;2.63;;
48925;SDS011;39838;59.938;30.642;2023-01-29T10:35:42;6.97;;;3.20;;
48925;SDS011;39838;59.938;30.642;2023-01-29T10:38:20;7.95;;;4.15;;
48925;SDS011;39838;59.938;30.642;2023-01-29T10:40:55;6.35;;;3.20;;
48925;SDS011;39838;59.938;30.642;2023-01-29T10:43:29;7.65;;;3.33;;
48925;SDS011;39838;59.938;30.642;2023-01-29T10:46:06;6.28;;;3.10;;
48925;SDS011;39838;59.938;30.642;2023-01-29T10:48:45;7.55;;;3.30;;
48925;SDS011;39838;59.938;30.642;2023-01-29T10:51:29;6.07;;;3.13;;
48925;SDS011;39838;59.938;30.642;2023-01-29T10:54:15;10.13;;;5.00;;
48925;SDS011;39838;59.938;30.642;2023-01-29T10:56:58;6.90;;;3.38;;
48925;SDS011;39838;59.938;30.642;2023-01-29T10:59:36;6.07;;;3.17;;
48925;SDS011;39838;59.938;30.642;2023-01-29T11:02:14;6.43;;;3.00;;
48925;SDS011;39838;59.938;30.642;2023-01-29T11:04:43;7.55;;;3.05;;
48925;SDS011;39838;59.938;30.642;2023-01-29T11:07:11;6.68;;;3.08;;
48925;SDS011;39838;59.938;30.642;2023-01-29T11:09:44;6.60;;;3.25;;
48925;SDS011;39838;59.938;30.642;2023-01-29T11:12:16;8.23;;;3.20;;
48925;SDS011;39838;59.938;30.642;2023-01-29T11:14:52;7.22;;;3.20;;
48925;SDS011;39838;59.938;30.642;2023-01-29T11:17:22;6.97;;;3.10;;
48925;SDS011;39838;59.938;30.642;2023-01-29T11:19:51;5.32;;;2.75;;
48925;SDS011;39838;59.938;30.642;2023-01-29T11:22:20;6.97;;;3.13;;
48925;SDS011;39838;59.938;30.642;2023-01-29T11:27:45;6.07;;;3.17;;
48925;SDS011;39838;59.938;30.642;2023-01-29T11:30:19;7.18;;;3.10;;
48925;SDS011;39838;59.938;30.642;2023-01-29T11:32:50;4.85;;;3.10;;
48925;SDS011;39838;59.938;30.642;2023-01-29T11:35:24;7.20;;;3.15;;
48925;SDS011;39838;59.938;30.642;2023-01-29T11:37:52;5.07;;;3.40;;
48925;SDS011;39838;59.938;30.642;2023-01-29T11:40:40;4.72;;;3.30;;
48925;SDS011;39838;59.938;30.642;2023-01-29T11:45:55;5.43;;;3.17;;
48925;SDS011;39838;59.938;30.642;2023-01-29T11:48:28;8.30;;;3.38;;
48925;SDS011;39838;59.938;30.642;2023-01-29T11:50:59;6.20;;;3.30;;
48925;SDS011;39838;59.938;30.642;2023-01-29T11:53:33;6.75;;;3.33;;
48925;SDS011;39838;59.938;30.642;2023-01-29T11:56:14;5.90;;;3.30;;
48925;SDS011;39838;59.938;30.642;2023-01-29T11:58:46;6.43;;;3.35;;
48925;SDS011;39838;59.938;30.642;2023-01-29T12:01:17;4.85;;;3.17;;
48925;SDS011;39838;59.938;30.642;2023-01-29T12:03:58;8.02;;;3.40;;
48925;SDS011;39838;59.938;30.642;2023-01-29T12:06:27;7.18;;;3.20;;
48925;SDS011;39838;59.938;30.642;2023-01-29T12:09:01;6.65;;;3.10;;
48925;SDS011;39838;59.938;30.642;2023-01-29T12:14:04;5.35;;;3.60;;
48925;SDS011;39838;59.938;30.642;2023-01-29T12:16:49;8.38;;;3.60;;
48925;SDS011;39838;59.938;30.642;2023-01-29T12:19:24;5.97;;;3.45;;
48925;SDS011;39838;59.938;30.642;2023-01-29T12:21:57;8.73;;;3.65;;
48925;SDS011;39838;59.938;30.642;2023-01-29T12:24:32;7.18;;;3.63;;
48925;SDS011;39838;59.938;30.642;2023-01-29T12:27:06;10.18;;;4.05;;
48925;SDS011;39838;59.938;30.642;2023-01-29T12:29:41;7.45;;;4.00;;
48925;SDS011;39838;59.938;30.642;2023-01-29T12:32:21;8.27;;;4.15;;
48925;SDS011;39838;59.938;30.642;2023-01-29T12:34:56;7.40;;;4.53;;
48925;SDS011;39838;59.938;30.642;2023-01-29T12:37:33;10.57;;;4.97;;
48925;SDS011;39838;59.938;30.642;2023-01-29T12:40:10;8.05;;;5.18;;
48925;SDS011;39838;59.938;30.642;2023-01-29T12:42:41;9.48;;;4.78;;
48925;SDS011;39838;59.938;30.642;2023-01-29T12:45:14;10.13;;;4.35;;
48925;SDS011;39838;59.938;30.642;2023-01-29T12:47:45;10.32;;;5.40;;
48925;SDS011;39838;59.938;30.642;2023-01-29T12:50:16;10.48;;;5.93;;
48925;SDS011;39838;59.938;30.642;2023-01-29T12:52:47;10.80;;;6.40;;
48925;SDS011;39838;59.938;30.642;2023-01-29T12:55:19;13.52;;;7.35;;
48925;SDS011;39838;59.938;30.642;2023-01-29T12:57:52;14.68;;;6.97;;
48925;SDS011;39838;59.938;30.642;2023-01-29T13:00:23;16.63;;;7.80;;
48925;SDS011;39838;59.938;30.642;2023-01-29T13:02:54;13.15;;;7.47;;
48925;SDS011;39838;59.938;30.642;2023-01-29T13:05:27;16.00;;;7.57;;
48925;SDS011;39838;59.938;30.642;2023-01-29T13:08:01;14.77;;;7.72;;
48925;SDS011;39838;59.938;30.642;2023-01-29T13:10:32;16.27;;;8.10;;
48925;SDS011;39838;59.938;30.642;2023-01-29T13:13:05;18.63;;;8.90;;
48925;SDS011;39838;59.938;30.642;2023-01-29T13:15:41;15.93;;;7.22;;
48925;SDS011;39838;59.938;30.642;2023-01-29T13:21:10;12.52;;;6.75;;
48925;SDS011;39838;59.938;30.642;2023-01-29T13:23:44;13.15;;;6.78;;
48925;SDS011;39838;59.938;30.642;2023-01-29T13:26:16;14.18;;;6.78;;
48925;SDS011;39838;59.938;30.642;2023-01-29T13:28:48;12.70;;;6.30;;
48925;SDS011;39838;59.938;30.642;2023-01-29T13:31:17;11.45;;;6.03;;
48925;SDS011;39838;59.938;30.642;2023-01-29T13:33:53;11.95;;;6.50;;
48925;SDS011;39838;59.938;30.642;2023-01-29T13:36:25;13.45;;;6.55;;
48925;SDS011;39838;59.938;30.642;2023-01-29T13:38:57;12.25;;;6.47;;
48925;SDS011;39838;59.938;30.642;2023-01-29T13:41:33;11.65;;;5.55;;
48925;SDS011;39838;59.938;30.642;2023-01-29T13:44:05;10.38;;;4.60;;
48925;SDS011;39838;59.938;30.642;2023-01-29T13:46:46;10.95;;;5.55;;
48925;SDS011;39838;59.938;30.642;2023-01-29T13:49:23;13.73;;;5.38;;
48925;SDS011;39838;59.938;30.642;2023-01-29T13:51:55;8.15;;;5.03;;
48925;SDS011;39838;59.938;30.642;2023-01-29T13:54:24;14.25;;;5.90;;
48925;SDS011;39838;59.938;30.642;2023-01-29T13:56:57;9.27;;;5.20;;
48925;SDS011;39838;59.938;30.642;2023-01-29T14:02:22;9.85;;;5.63;;
48925;SDS011;39838;59.938;30.642;2023-01-29T14:04:50;14.63;;;5.35;;
48925;SDS011;39838;59.938;30.642;2023-01-29T14:07:46;12.75;;;5.38;;
48925;SDS011;39838;59.938;30.642;2023-01-29T14:10:16;12.15;;;5.38;;
48925;SDS011;39838;59.938;30.642;2023-01-29T14:12:46;11.38;;;5.43;;
48925;SDS011;39838;59.938;30.642;2023-01-29T14:15:20;9.10;;;4.45;;
48925;SDS011;39838;59.938;30.642;2023-01-29T14:17:57;11.45;;;4.95;;
48925;SDS011;39838;59.938;30.642;2023-01-29T14:20:48;8.70;;;4.53;;
48925;SDS011;39838;59.938;30.642;2023-01-29T14:26:21;8.05;;;5.75;;
48925;SDS011;39838;59.938;30.642;2023-01-29T14:28:58;10.63;;;5.60;;
48925;SDS011;39838;59.938;30.642;2023-01-29T14:31:30;10.43;;;5.13;;
48925;SDS011;39838;59.938;30.642;2023-01-29T14:34:03;9.68;;;4.93;;
48925;SDS011;39838;59.938;30.642;2023-01-29T14:36:40;10.95;;;5.15;;
48925;SDS011;39838;59.938;30.642;2023-01-29T14:39:18;10.63;;;4.95;;
48925;SDS011;39838;59.938;30.642;2023-01-29T14:41:48;12.30;;;5.35;;
48925;SDS011;39838;59.938;30.642;2023-01-29T14:47:18;12.30;;;4.90;;
48925;SDS011;39838;59.938;30.642;2023-01-29T14:49:50;10.02;;;5.18;;
48925;SDS011;39838;59.938;30.642;2023-01-29T14:52:19;8.63;;;4.70;;
48925;SDS011;39838;59.938;30.642;2023-01-29T14:54:50;6.50;;;3.88;;
48925;SDS011;39838;59.938;30.642;2023-01-29T14:57:21;10.07;;;4.43;;
48925;SDS011;39838;59.938;30.642;2023-01-29T14:59:52;9.32;;;4.40;;
48925;SDS011;39838;59.938;30.642;2023-01-29T15:02:25;12.18;;;4.40;;
48925;SDS011;39838;59.938;30.642;2023-01-29T15:05:01;9.88;;;4.13;;
48925;SDS011;39838;59.938;30.642;2023-01-29T15:07:33;9.65;;;4.53;;
48925;SDS011;39838;59.938;30.642;2023-01-29T15:10:07;11.27;;;4.80;;
48925;SDS011;39838;59.938;30.642;2023-01-29T15:12:44;8.57;;;4.50;;
48925;SDS011;39838;59.938;30.642;2023-01-29T15:15:15;10.68;;;4.70;;
48925;SDS011;39838;59.938;30.642;2023-01-29T15:17:51;14.38;;;4.72;;
48925;SDS011;39838;59.938;30.642;2023-01-29T15:20:28;11.45;;;5.72;;
48925;SDS011;39838;59.938;30.642;2023-01-29T15:22:59;14.48;;;7.32;;
48925;SDS011;39838;59.938;30.642;2023-01-29T15:25:33;13.18;;;6.72;;
48925;SDS011;39838;59.938;30.642;2023-01-29T15:28:02;9.93;;;4.45;;
48925;SDS011;39838;59.938;30.642;2023-01-29T15:30:33;9.70;;;4.55;;
48925;SDS011;39838;59.938;30.642;2023-01-29T15:33:06;9.23;;;4.82;;
48925;SDS011;39838;59.938;30.642;2023-01-29T15:35:36;9.85;;;5.10;;